sensor_id;sensor_type;location;lat;lon;timestamp;pressure;altitude;pressure_sealevel;temperature
74485;BMP280;62942;52.462;10.846;2023-03-24T00:00:43;99540;;;
74485;BMP280;62942;52.462;10.846;2023-03-24T00:01:53;99540;;;
74485;BMP280;62942;52.462;10.846;2023-03-24T00:02:53;99530;;;
74485;BMP280;62942;52.462;10.846;2023-03-24T00:03:53;99530;;;
74485;BMP280;62942;52.462;10.846;2023-03-24T00:05:03;99530;;;
74485;BMP280;62942;52.462;10.846;2023-03-24T00:06:04;99530;;;
74485;BMP280;62942;52.462;10.846;2023-03-24T00:07:13;99520;;;
74485;BMP280;62942;52.462;10.846;2023-03-24T00:08:13;99520;;;
74485;BMP280;62942;52.462;10.846;2023-03-24T00:09:13;99520;;;
74485;BMP280;62942;52.462;10.846;2023-03-24T00:10:23;99520;;;
74485;BMP280;62942;52.462;10.846;2023-03-24T00:11:23;99510;;;
74485;BMP280;62942;52.462;10.846;2023-03-24T00:12:33;99520;;;
74485;BMP280;62942;52.462;10.846;2023-03-24T00:13:34;99520;;;
74485;BMP280;62942;52.462;10.846;2023-03-24T00:14:33;99530;;;
74485;BMP280;62942;52.462;10.846;2023-03-24T00:15:43;99520;;;
74485;BMP280;62942;52.462;10.846;2023-03-24T00:16:53;99520;;;
74485;BMP280;62942;52.462;10.846;2023-03-24T00:18:03;99510;;;
74485;BMP280;62942;52.462;10.846;2023-03-24T00:19:03;99510;;;
74485;BMP280;62942;52.462;10.846;2023-03-24T00:20:13;99510;;;
74485;BMP280;62942;52.462;10.846;2023-03-24T00:21:23;99500;;;
74485;BMP280;62942;52.462;10.846;2023-03-24T00:22:33;99500;;;
74485;BMP280;62942;52.462;10.846;2023-03-24T00:23:43;99500;;;
74485;BMP280;62942;52.462;10.846;2023-03-24T00:24:43;99490;;;
74485;BMP280;62942;52.462;10.846;2023-03-24T00:26:01;99500;;;
74485;BMP280;62942;52.462;10.846;2023-03-24T00:27:03;99490;;;
74485;BMP280;62942;52.462;10.846;2023-03-24T00:28:13;99490;;;
74485;BMP280;62942;52.462;10.846;2023-03-24T00:29:13;99490;;;
74485;BMP280;62942;52.462;10.846;2023-03-24T00:30:23;99490;;;
74485;BMP280;62942;52.462;10.846;2023-03-24T00:31:33;99490;;;
74485;BMP280;62942;52.462;10.846;2023-03-24T00:32:43;99490;;;
74485;BMP280;62942;52.462;10.846;2023-03-24T00:33:53;99480;;;
74485;BMP280;62942;52.462;10.846;2023-03-24T00:35:03;99480;;;
74485;BMP280;62942;52.462;10.846;2023-03-24T00:36:13;99490;;;
74485;BMP280;62942;52.462;10.846;2023-03-24T00:37:13;99480;;;
74485;BMP280;62942;52.462;10.846;2023-03-24T00:38:23;99480;;;
74485;BMP280;62942;52.462;10.846;2023-03-24T00:39:23;99480;;;
74485;BMP280;62942;52.462;10.846;2023-03-24T00:40:33;99480;;;
74485;BMP280;62942;52.462;10.846;2023-03-24T00:41:43;99480;;;
74485;BMP280;62942;52.462;10.846;2023-03-24T00:42:44;99480;;;
74485;BMP280;62942;52.462;10.846;2023-03-24T00:43:54;99480;;;
74485;BMP280;62942;52.462;10.846;2023-03-24T00:45:04;99480;;;
74485;BMP280;62942;52.462;10.846;2023-03-24T00:46:04;99480;;;
74485;BMP280;62942;52.462;10.846;2023-03-24T00:47:13;99470;;;
74485;BMP280;62942;52.462;10.846;2023-03-24T00:48:14;99480;;;
74485;BMP280;62942;52.462;10.846;2023-03-24T00:49:13;99470;;;
74485;BMP280;62942;52.462;10.846;2023-03-24T00:50:23;99460;;;
74485;BMP280;62942;52.462;10.846;2023-03-24T00:51:23;99460;;;
74485;BMP280;62942;52.462;10.846;2023-03-24T00:52:33;99480;;;
74485;BMP280;62942;52.462;10.846;2023-03-24T00:53:43;99470;;;
74485;BMP280;62942;52.462;10.846;2023-03-24T00:54:53;99470;;;
74485;BMP280;62942;52.462;10.846;2023-03-24T00:56:03;99470;;;
74485;BMP280;62942;52.462;10.846;2023-03-24T00:57:14;99470;;;
74485;BMP280;62942;52.462;10.846;2023-03-24T00:58:24;99470;;;
74485;BMP280;62942;52.462;10.846;2023-03-24T00:59:33;99460;;;
74485;BMP280;62942;52.462;10.846;2023-03-24T01:00:43;99460;;;
74485;BMP280;62942;52.462;10.846;2023-03-24T01:01:53;99460;;;
74485;BMP280;62942;52.462;10.846;2023-03-24T01:03:03;99460;;;
74485;BMP280;62942;52.462;10.846;2023-03-24T01:04:13;99460;;;
74485;BMP280;62942;52.462;10.846;2023-03-24T01:05:24;99460;;;
74485;BMP280;62942;52.462;10.846;2023-03-24T01:06:34;99450;;;
74485;BMP280;62942;52.462;10.846;2023-03-24T01:07:43;99460;;;
74485;BMP280;62942;52.462;10.846;2023-03-24T01:08:53;99450;;;
74485;BMP280;62942;52.462;10.846;2023-03-24T01:10:03;99450;;;
74485;BMP280;62942;52.462;10.846;2023-03-24T01:11:04;99450;;;
74485;BMP280;62942;52.462;10.846;2023-03-24T01:12:13;99450;;;
74485;BMP280;62942;52.462;10.846;2023-03-24T01:13:24;99450;;;
74485;BMP280;62942;52.462;10.846;2023-03-24T01:14:33;99450;;;
74485;BMP280;62942;52.462;10.846;2023-03-24T01:15:43;99440;;;
74485;BMP280;62942;52.462;10.846;2023-03-24T01:16:53;99450;;;
74485;BMP280;62942;52.462;10.846;2023-03-24T01:18:03;99440;;;
74485;BMP280;62942;52.462;10.846;2023-03-24T01:19:03;99440;;;
74485;BMP280;62942;52.462;10.846;2023-03-24T01:20:13;99450;;;
74485;BMP280;62942;52.462;10.846;2023-03-24T01:21:13;99440;;;
74485;BMP280;62942;52.462;10.846;2023-03-24T01:22:13;99440;;;
74485;BMP280;62942;52.462;10.846;2023-03-24T01:23:24;99440;;;
74485;BMP280;62942;52.462;10.846;2023-03-24T01:24:33;99440;;;
74485;BMP280;62942;52.462;10.846;2023-03-24T01:25:43;99430;;;
74485;BMP280;62942;52.462;10.846;2023-03-24T01:26:53;99430;;;
74485;BMP280;62942;52.462;10.846;2023-03-24T01:28:03;99430;;;
74485;BMP280;62942;52.462;10.846;2023-03-24T01:29:13;99430;;;
74485;BMP280;62942;52.462;10.846;2023-03-24T01:30:24;99430;;;
74485;BMP280;62942;52.462;10.846;2023-03-24T01:31:23;99430;;;
74485;BMP280;62942;52.462;10.846;2023-03-24T01:32:33;99420;;;
74485;BMP280;62942;52.462;10.846;2023-03-24T01:33:43;99430;;;
74485;BMP280;62942;52.462;10.846;2023-03-24T01:34:53;99420;;;
74485;BMP280;62942;52.462;10.846;2023-03-24T01:35:53;99420;;;
74485;BMP280;62942;52.462;10.846;2023-03-24T01:37:03;99420;;;
74485;BMP280;62942;52.462;10.846;2023-03-24T01:38:13;99420;;;
74485;BMP280;62942;52.462;10.846;2023-03-24T01:39:23;99420;;;
74485;BMP280;62942;52.462;10.846;2023-03-24T01:40:34;99420;;;
74485;BMP280;62942;52.462;10.846;2023-03-24T01:41:35;99410;;;
74485;BMP280;62942;52.462;10.846;2023-03-24T01:42:33;99410;;;
74485;BMP280;62942;52.462;10.846;2023-03-24T01:43:43;99410;;;
74485;BMP280;62942;52.462;10.846;2023-03-24T01:44:55;99410;;;
74485;BMP280;62942;52.462;10.846;2023-03-24T01:45:56;99410;;;
74485;BMP280;62942;52.462;10.846;2023-03-24T01:47:05;99400;;;
74485;BMP280;62942;52.462;10.846;2023-03-24T01:48:03;99410;;;
74485;BMP280;62942;52.462;10.846;2023-03-24T01:49:13;99410;;;
74485;BMP280;62942;52.462;10.846;2023-03-24T01:50:23;99400;;;
74485;BMP280;62942;52.462;10.846;2023-03-24T01:51:24;99400;;;
74485;BMP280;62942;52.462;10.846;2023-03-24T01:52:33;99390;;;
74485;BMP280;62942;52.462;10.846;2023-03-24T01:53:34;99390;;;
74485;BMP280;62942;52.462;10.846;2023-03-24T01:54:34;99390;;;
74485;BMP280;62942;52.462;10.846;2023-03-24T01:55:44;99380;;;
74485;BMP280;62942;52.462;10.846;2023-03-24T01:56:44;99380;;;
74485;BMP280;62942;52.462;10.846;2023-03-24T01:57:54;99380;;;
74485;BMP280;62942;52.462;10.846;2023-03-24T01:59:04;99380;;;
74485;BMP280;62942;52.462;10.846;2023-03-24T02:00:14;99370;;;
74485;BMP280;62942;52.462;10.846;2023-03-24T02:01:23;99370;;;
74485;BMP280;62942;52.462;10.846;2023-03-24T02:02:33;99370;;;
74485;BMP280;62942;52.462;10.846;2023-03-24T02:03:33;99370;;;
74485;BMP280;62942;52.462;10.846;2023-03-24T02:04:44;99370;;;
74485;BMP280;62942;52.462;10.846;2023-03-24T02:05:53;99370;;;
74485;BMP280;62942;52.462;10.846;2023-03-24T02:07:06;99360;;;
74485;BMP280;62942;52.462;10.846;2023-03-24T02:08:15;99360;;;
74485;BMP280;62942;52.462;10.846;2023-03-24T02:09:13;99360;;;
74485;BMP280;62942;52.462;10.846;2023-03-24T02:10:23;99360;;;
74485;BMP280;62942;52.462;10.846;2023-03-24T02:11:24;99350;;;
74485;BMP280;62942;52.462;10.846;2023-03-24T02:12:33;99350;;;
74485;BMP280;62942;52.462;10.846;2023-03-24T02:13:43;99340;;;
74485;BMP280;62942;52.462;10.846;2023-03-24T02:14:53;99340;;;
74485;BMP280;62942;52.462;10.846;2023-03-24T02:16:04;99340;;;
74485;BMP280;62942;52.462;10.846;2023-03-24T02:17:08;99340;;;
74485;BMP280;62942;52.462;10.846;2023-03-24T02:18:13;99330;;;
74485;BMP280;62942;52.462;10.846;2023-03-24T02:20:26;99330;;;
74485;BMP280;62942;52.462;10.846;2023-03-24T02:21:36;99330;;;
74485;BMP280;62942;52.462;10.846;2023-03-24T02:22:33;99330;;;
74485;BMP280;62942;52.462;10.846;2023-03-24T02:23:54;99320;;;
74485;BMP280;62942;52.462;10.846;2023-03-24T02:24:43;99330;;;
74485;BMP280;62942;52.462;10.846;2023-03-24T02:25:46;99330;;;
74485;BMP280;62942;52.462;10.846;2023-03-24T02:26:39;99320;;;
74485;BMP280;62942;52.462;10.846;2023-03-24T02:27:49;99320;;;
74485;BMP280;62942;52.462;10.846;2023-03-24T02:28:45;99320;;;
74485;BMP280;62942;52.462;10.846;2023-03-24T02:29:59;99310;;;
74485;BMP280;62942;52.462;10.846;2023-03-24T02:31:00;99310;;;
74485;BMP280;62942;52.462;10.846;2023-03-24T02:32:11;99310;;;
74485;BMP280;62942;52.462;10.846;2023-03-24T02:33:52;99310;;;
74485;BMP280;62942;52.462;10.846;2023-03-24T02:34:32;99310;;;
74485;BMP280;62942;52.462;10.846;2023-03-24T02:35:45;99310;;;
74485;BMP280;62942;52.462;10.846;2023-03-24T02:36:45;99300;;;
74485;BMP280;62942;52.462;10.846;2023-03-24T02:37:56;99300;;;
74485;BMP280;62942;52.462;10.846;2023-03-24T02:38:51;99300;;;
74485;BMP280;62942;52.462;10.846;2023-03-24T02:39:54;99300;;;
74485;BMP280;62942;52.462;10.846;2023-03-24T02:40:53;99300;;;
74485;BMP280;62942;52.462;10.846;2023-03-24T02:42:05;99280;;;
74485;BMP280;62942;52.462;10.846;2023-03-24T02:43:18;99290;;;
74485;BMP280;62942;52.462;10.846;2023-03-24T02:44:15;99290;;;
74485;BMP280;62942;52.462;10.846;2023-03-24T02:45:16;99280;;;
74485;BMP280;62942;52.462;10.846;2023-03-24T02:46:23;99290;;;
74485;BMP280;62942;52.462;10.846;2023-03-24T02:47:35;99290;;;
74485;BMP280;62942;52.462;10.846;2023-03-24T02:48:34;99290;;;
74485;BMP280;62942;52.462;10.846;2023-03-24T02:49:45;99280;;;
74485;BMP280;62942;52.462;10.846;2023-03-24T02:50:53;99280;;;
74485;BMP280;62942;52.462;10.846;2023-03-24T02:51:55;99270;;;
74485;BMP280;62942;52.462;10.846;2023-03-24T02:53:05;99280;;;
74485;BMP280;62942;52.462;10.846;2023-03-24T02:54:14;99270;;;
74485;BMP280;62942;52.462;10.846;2023-03-24T02:55:14;99280;;;
74485;BMP280;62942;52.462;10.846;2023-03-24T02:56:24;99280;;;
74485;BMP280;62942;52.462;10.846;2023-03-24T02:57:34;99270;;;
74485;BMP280;62942;52.462;10.846;2023-03-24T02:58:45;99280;;;
74485;BMP280;62942;52.462;10.846;2023-03-24T02:59:54;99280;;;
74485;BMP280;62942;52.462;10.846;2023-03-24T03:01:04;99280;;;
74485;BMP280;62942;52.462;10.846;2023-03-24T03:02:03;99270;;;
74485;BMP280;62942;52.462;10.846;2023-03-24T03:03:15;99270;;;
74485;BMP280;62942;52.462;10.846;2023-03-24T03:04:24;99270;;;
74485;BMP280;62942;52.462;10.846;2023-03-24T03:05:24;99270;;;
74485;BMP280;62942;52.462;10.846;2023-03-24T03:06:33;99270;;;
74485;BMP280;62942;52.462;10.846;2023-03-24T03:07:43;99270;;;
74485;BMP280;62942;52.462;10.846;2023-03-24T03:08:43;99260;;;
74485;BMP280;62942;52.462;10.846;2023-03-24T03:09:55;99260;;;
74485;BMP280;62942;52.462;10.846;2023-03-24T03:11:03;99250;;;
74485;BMP280;62942;52.462;10.846;2023-03-24T03:12:13;99260;;;
74485;BMP280;62942;52.462;10.846;2023-03-24T03:13:14;99250;;;
74485;BMP280;62942;52.462;10.846;2023-03-24T03:14:24;99250;;;
74485;BMP280;62942;52.462;10.846;2023-03-24T03:15:33;99250;;;
74485;BMP280;62942;52.462;10.846;2023-03-24T03:16:34;99240;;;
74485;BMP280;62942;52.462;10.846;2023-03-24T03:17:45;99240;;;
74485;BMP280;62942;52.462;10.846;2023-03-24T03:18:44;99240;;;
74485;BMP280;62942;52.462;10.846;2023-03-24T03:19:53;99240;;;
74485;BMP280;62942;52.462;10.846;2023-03-24T03:21:03;99240;;;
74485;BMP280;62942;52.462;10.846;2023-03-24T03:22:03;99240;;;
74485;BMP280;62942;52.462;10.846;2023-03-24T03:23:04;99230;;;
74485;BMP280;62942;52.462;10.846;2023-03-24T03:24:05;99230;;;
74485;BMP280;62942;52.462;10.846;2023-03-24T03:25:13;99240;;;
74485;BMP280;62942;52.462;10.846;2023-03-24T03:26:14;99230;;;
74485;BMP280;62942;52.462;10.846;2023-03-24T03:27:24;99230;;;
74485;BMP280;62942;52.462;10.846;2023-03-24T03:28:34;99240;;;
74485;BMP280;62942;52.462;10.846;2023-03-24T03:29:43;99240;;;
74485;BMP280;62942;52.462;10.846;2023-03-24T03:30:43;99240;;;
74485;BMP280;62942;52.462;10.846;2023-03-24T03:31:43;99240;;;
74485;BMP280;62942;52.462;10.846;2023-03-24T03:32:44;99240;;;
74485;BMP280;62942;52.462;10.846;2023-03-24T03:33:44;99240;;;
74485;BMP280;62942;52.462;10.846;2023-03-24T03:34:44;99240;;;
74485;BMP280;62942;52.462;10.846;2023-03-24T03:35:55;99240;;;
74485;BMP280;62942;52.462;10.846;2023-03-24T03:37:03;99230;;;
74485;BMP280;62942;52.462;10.846;2023-03-24T03:38:05;99230;;;
74485;BMP280;62942;52.462;10.846;2023-03-24T03:39:04;99220;;;
74485;BMP280;62942;52.462;10.846;2023-03-24T03:40:04;99220;;;
74485;BMP280;62942;52.462;10.846;2023-03-24T03:41:13;99220;;;
74485;BMP280;62942;52.462;10.846;2023-03-24T03:42:23;99210;;;
74485;BMP280;62942;52.462;10.846;2023-03-24T03:43:23;99220;;;
74485;BMP280;62942;52.462;10.846;2023-03-24T03:44:33;99210;;;
74485;BMP280;62942;52.462;10.846;2023-03-24T03:45:33;99210;;;
74485;BMP280;62942;52.462;10.846;2023-03-24T03:46:43;99210;;;
74485;BMP280;62942;52.462;10.846;2023-03-24T03:47:53;99210;;;
74485;BMP280;62942;52.462;10.846;2023-03-24T03:48:53;99210;;;
74485;BMP280;62942;52.462;10.846;2023-03-24T03:50:03;99210;;;
74485;BMP280;62942;52.462;10.846;2023-03-24T03:51:13;99210;;;
74485;BMP280;62942;52.462;10.846;2023-03-24T03:52:13;99210;;;
74485;BMP280;62942;52.462;10.846;2023-03-24T03:53:23;99210;;;
74485;BMP280;62942;52.462;10.846;2023-03-24T03:54:33;99210;;;
74485;BMP280;62942;52.462;10.846;2023-03-24T03:55:43;99210;;;
74485;BMP280;62942;52.462;10.846;2023-03-24T03:56:53;99200;;;
74485;BMP280;62942;52.462;10.846;2023-03-24T03:57:53;99200;;;
74485;BMP280;62942;52.462;10.846;2023-03-24T03:59:03;99200;;;
74485;BMP280;62942;52.462;10.846;2023-03-24T04:00:13;99190;;;
74485;BMP280;62942;52.462;10.846;2023-03-24T04:01:24;99200;;;
74485;BMP280;62942;52.462;10.846;2023-03-24T04:02:27;99200;;;
74485;BMP280;62942;52.462;10.846;2023-03-24T04:03:39;99200;;;
74485;BMP280;62942;52.462;10.846;2023-03-24T04:04:39;99200;;;
74485;BMP280;62942;52.462;10.846;2023-03-24T04:05:45;99200;;;
74485;BMP280;62942;52.462;10.846;2023-03-24T04:06:54;99200;;;
74485;BMP280;62942;52.462;10.846;2023-03-24T04:08:19;99190;;;
74485;BMP280;62942;52.462;10.846;2023-03-24T04:09:17;99190;;;
74485;BMP280;62942;52.462;10.846;2023-03-24T04:10:14;99180;;;
74485;BMP280;62942;52.462;10.846;2023-03-24T04:11:26;99200;;;
74485;BMP280;62942;52.462;10.846;2023-03-24T04:12:38;99200;;;
74485;BMP280;62942;52.462;10.846;2023-03-24T04:13:46;99200;;;
74485;BMP280;62942;52.462;10.846;2023-03-24T04:14:58;99200;;;
74485;BMP280;62942;52.462;10.846;2023-03-24T04:15:53;99200;;;
74485;BMP280;62942;52.462;10.846;2023-03-24T04:17:04;99200;;;
74485;BMP280;62942;52.462;10.846;2023-03-24T04:19:10;99200;;;
74485;BMP280;62942;52.462;10.846;2023-03-24T04:19:16;99190;;;
74485;BMP280;62942;52.462;10.846;2023-03-24T04:20:23;99190;;;
74485;BMP280;62942;52.462;10.846;2023-03-24T04:21:37;99190;;;
74485;BMP280;62942;52.462;10.846;2023-03-24T04:22:36;99180;;;
74485;BMP280;62942;52.462;10.846;2023-03-24T04:23:44;99190;;;
74485;BMP280;62942;52.462;10.846;2023-03-24T04:24:53;99180;;;
74485;BMP280;62942;52.462;10.846;2023-03-24T04:25:56;99180;;;
74485;BMP280;62942;52.462;10.846;2023-03-24T04:27:04;99180;;;
74485;BMP280;62942;52.462;10.846;2023-03-24T04:28:15;99180;;;
74485;BMP280;62942;52.462;10.846;2023-03-24T04:29:23;99170;;;
74485;BMP280;62942;52.462;10.846;2023-03-24T04:30:34;99170;;;
74485;BMP280;62942;52.462;10.846;2023-03-24T04:31:43;99170;;;
74485;BMP280;62942;52.462;10.846;2023-03-24T04:32:44;99170;;;
74485;BMP280;62942;52.462;10.846;2023-03-24T04:33:54;99180;;;
74485;BMP280;62942;52.462;10.846;2023-03-24T04:35:03;99170;;;
74485;BMP280;62942;52.462;10.846;2023-03-24T04:36:13;99170;;;
74485;BMP280;62942;52.462;10.846;2023-03-24T04:37:23;99170;;;
74485;BMP280;62942;52.462;10.846;2023-03-24T04:38:33;99170;;;
74485;BMP280;62942;52.462;10.846;2023-03-24T04:39:43;99170;;;
74485;BMP280;62942;52.462;10.846;2023-03-24T04:40:43;99160;;;
74485;BMP280;62942;52.462;10.846;2023-03-24T04:41:53;99160;;;
74485;BMP280;62942;52.462;10.846;2023-03-24T04:42:53;99160;;;
74485;BMP280;62942;52.462;10.846;2023-03-24T04:44:03;99150;;;
74485;BMP280;62942;52.462;10.846;2023-03-24T04:45:04;99150;;;
74485;BMP280;62942;52.462;10.846;2023-03-24T04:46:13;99150;;;
74485;BMP280;62942;52.462;10.846;2023-03-24T04:47:23;99140;;;
74485;BMP280;62942;52.462;10.846;2023-03-24T04:48:33;99140;;;
74485;BMP280;62942;52.462;10.846;2023-03-24T04:49:43;99130;;;
74485;BMP280;62942;52.462;10.846;2023-03-24T04:50:44;99130;;;
74485;BMP280;62942;52.462;10.846;2023-03-24T04:51:43;99130;;;
74485;BMP280;62942;52.462;10.846;2023-03-24T04:52:53;99130;;;
74485;BMP280;62942;52.462;10.846;2023-03-24T04:53:53;99130;;;
74485;BMP280;62942;52.462;10.846;2023-03-24T04:55:03;99130;;;
74485;BMP280;62942;52.462;10.846;2023-03-24T04:56:11;99130;;;
74485;BMP280;62942;52.462;10.846;2023-03-24T04:57:13;99120;;;
74485;BMP280;62942;52.462;10.846;2023-03-24T04:58:23;99120;;;
74485;BMP280;62942;52.462;10.846;2023-03-24T04:59:23;99110;;;
74485;BMP280;62942;52.462;10.846;2023-03-24T05:00:23;99110;;;
74485;BMP280;62942;52.462;10.846;2023-03-24T05:01:33;99120;;;
74485;BMP280;62942;52.462;10.846;2023-03-24T05:02:43;99110;;;
74485;BMP280;62942;52.462;10.846;2023-03-24T05:03:53;99110;;;
74485;BMP280;62942;52.462;10.846;2023-03-24T05:05:03;99100;;;
74485;BMP280;62942;52.462;10.846;2023-03-24T05:06:13;99100;;;
74485;BMP280;62942;52.462;10.846;2023-03-24T05:07:23;99110;;;
74485;BMP280;62942;52.462;10.846;2023-03-24T05:08:23;99110;;;
74485;BMP280;62942;52.462;10.846;2023-03-24T05:09:33;99120;;;
74485;BMP280;62942;52.462;10.846;2023-03-24T05:10:43;99110;;;
74485;BMP280;62942;52.462;10.846;2023-03-24T05:11:53;99100;;;
74485;BMP280;62942;52.462;10.846;2023-03-24T05:13:03;99100;;;
74485;BMP280;62942;52.462;10.846;2023-03-24T05:14:13;99090;;;
74485;BMP280;62942;52.462;10.846;2023-03-24T05:15:23;99090;;;
74485;BMP280;62942;52.462;10.846;2023-03-24T05:16:33;99090;;;
74485;BMP280;62942;52.462;10.846;2023-03-24T05:17:43;99090;;;
74485;BMP280;62942;52.462;10.846;2023-03-24T05:18:53;99090;;;
74485;BMP280;62942;52.462;10.846;2023-03-24T05:19:53;99090;;;
74485;BMP280;62942;52.462;10.846;2023-03-24T05:20:53;99090;;;
74485;BMP280;62942;52.462;10.846;2023-03-24T05:22:03;99090;;;
74485;BMP280;62942;52.462;10.846;2023-03-24T05:23:03;99090;;;
74485;BMP280;62942;52.462;10.846;2023-03-24T05:24:13;99080;;;
74485;BMP280;62942;52.462;10.846;2023-03-24T05:25:23;99080;;;
74485;BMP280;62942;52.462;10.846;2023-03-24T05:26:23;99080;;;
74485;BMP280;62942;52.462;10.846;2023-03-24T05:27:33;99100;;;
74485;BMP280;62942;52.462;10.846;2023-03-24T05:28:43;99090;;;
74485;BMP280;62942;52.462;10.846;2023-03-24T05:29:53;99090;;;
74485;BMP280;62942;52.462;10.846;2023-03-24T05:30:53;99090;;;
74485;BMP280;62942;52.462;10.846;2023-03-24T05:31:53;99090;;;
74485;BMP280;62942;52.462;10.846;2023-03-24T05:33:03;99080;;;
74485;BMP280;62942;52.462;10.846;2023-03-24T05:34:13;99080;;;
74485;BMP280;62942;52.462;10.846;2023-03-24T05:35:23;99090;;;
74485;BMP280;62942;52.462;10.846;2023-03-24T05:36:33;99080;;;
74485;BMP280;62942;52.462;10.846;2023-03-24T05:37:43;99080;;;
74485;BMP280;62942;52.462;10.846;2023-03-24T05:38:53;99080;;;
74485;BMP280;62942;52.462;10.846;2023-03-24T05:39:53;99070;;;
74485;BMP280;62942;52.462;10.846;2023-03-24T05:41:03;99070;;;
74485;BMP280;62942;52.462;10.846;2023-03-24T05:42:13;99070;;;
74485;BMP280;62942;52.462;10.846;2023-03-24T05:43:13;99080;;;
74485;BMP280;62942;52.462;10.846;2023-03-24T05:44:23;99090;;;
74485;BMP280;62942;52.462;10.846;2023-03-24T05:45:33;99090;;;
74485;BMP280;62942;52.462;10.846;2023-03-24T05:46:33;99080;;;
74485;BMP280;62942;52.462;10.846;2023-03-24T05:47:43;99080;;;
74485;BMP280;62942;52.462;10.846;2023-03-24T05:48:43;99070;;;
74485;BMP280;62942;52.462;10.846;2023-03-24T05:49:53;99070;;;
74485;BMP280;62942;52.462;10.846;2023-03-24T05:50:53;99070;;;
74485;BMP280;62942;52.462;10.846;2023-03-24T05:52:03;99070;;;
74485;BMP280;62942;52.462;10.846;2023-03-24T05:53:03;99060;;;
74485;BMP280;62942;52.462;10.846;2023-03-24T05:54:13;99060;;;
74485;BMP280;62942;52.462;10.846;2023-03-24T05:55:23;99060;;;
74485;BMP280;62942;52.462;10.846;2023-03-24T05:56:33;99060;;;
74485;BMP280;62942;52.462;10.846;2023-03-24T05:57:33;99060;;;
74485;BMP280;62942;52.462;10.846;2023-03-24T05:58:43;99050;;;
74485;BMP280;62942;52.462;10.846;2023-03-24T05:59:53;99040;;;
74485;BMP280;62942;52.462;10.846;2023-03-24T06:00:53;99050;;;
74485;BMP280;62942;52.462;10.846;2023-03-24T06:02:03;99040;;;
74485;BMP280;62942;52.462;10.846;2023-03-24T06:03:13;99040;;;
74485;BMP280;62942;52.462;10.846;2023-03-24T06:04:13;99030;;;
74485;BMP280;62942;52.462;10.846;2023-03-24T06:05:23;99030;;;
74485;BMP280;62942;52.462;10.846;2023-03-24T06:06:23;99040;;;
74485;BMP280;62942;52.462;10.846;2023-03-24T06:07:33;99040;;;
74485;BMP280;62942;52.462;10.846;2023-03-24T06:08:43;99040;;;
74485;BMP280;62942;52.462;10.846;2023-03-24T06:09:53;99040;;;
74485;BMP280;62942;52.462;10.846;2023-03-24T06:11:03;99040;;;
74485;BMP280;62942;52.462;10.846;2023-03-24T06:12:03;99050;;;
74485;BMP280;62942;52.462;10.846;2023-03-24T06:13:13;99040;;;
74485;BMP280;62942;52.462;10.846;2023-03-24T06:14:23;99040;;;
74485;BMP280;62942;52.462;10.846;2023-03-24T06:15:23;99030;;;
74485;BMP280;62942;52.462;10.846;2023-03-24T06:16:23;99040;;;
74485;BMP280;62942;52.462;10.846;2023-03-24T06:17:33;99030;;;
74485;BMP280;62942;52.462;10.846;2023-03-24T06:18:43;99030;;;
74485;BMP280;62942;52.462;10.846;2023-03-24T06:19:43;99030;;;
74485;BMP280;62942;52.462;10.846;2023-03-24T06:20:53;99040;;;
74485;BMP280;62942;52.462;10.846;2023-03-24T06:22:03;99040;;;
74485;BMP280;62942;52.462;10.846;2023-03-24T06:23:03;99040;;;
74485;BMP280;62942;52.462;10.846;2023-03-24T06:24:12;99040;;;
74485;BMP280;62942;52.462;10.846;2023-03-24T06:25:13;99030;;;
74485;BMP280;62942;52.462;10.846;2023-03-24T06:26:23;99040;;;
74485;BMP280;62942;52.462;10.846;2023-03-24T06:27:23;99030;;;
74485;BMP280;62942;52.462;10.846;2023-03-24T06:28:32;99040;;;
74485;BMP280;62942;52.462;10.846;2023-03-24T06:29:34;99040;;;
74485;BMP280;62942;52.462;10.846;2023-03-24T06:30:33;99040;;;
74485;BMP280;62942;52.462;10.846;2023-03-24T06:31:43;99040;;;
74485;BMP280;62942;52.462;10.846;2023-03-24T06:32:43;99040;;;
74485;BMP280;62942;52.462;10.846;2023-03-24T06:33:53;99040;;;
74485;BMP280;62942;52.462;10.846;2023-03-24T06:34:53;99040;;;
74485;BMP280;62942;52.462;10.846;2023-03-24T06:36:03;99050;;;
74485;BMP280;62942;52.462;10.846;2023-03-24T06:37:13;99050;;;
74485;BMP280;62942;52.462;10.846;2023-03-24T06:38:23;99060;;;
74485;BMP280;62942;52.462;10.846;2023-03-24T06:39:33;99050;;;
74485;BMP280;62942;52.462;10.846;2023-03-24T06:40:43;99050;;;
74485;BMP280;62942;52.462;10.846;2023-03-24T06:41:52;99050;;;
74485;BMP280;62942;52.462;10.846;2023-03-24T06:42:52;99050;;;
74485;BMP280;62942;52.462;10.846;2023-03-24T06:43:53;99050;;;
74485;BMP280;62942;52.462;10.846;2023-03-24T06:45:03;99050;;;
74485;BMP280;62942;52.462;10.846;2023-03-24T06:46:13;99050;;;
74485;BMP280;62942;52.462;10.846;2023-03-24T06:47:23;99060;;;
74485;BMP280;62942;52.462;10.846;2023-03-24T06:48:33;99060;;;
74485;BMP280;62942;52.462;10.846;2023-03-24T06:49:33;99050;;;
74485;BMP280;62942;52.462;10.846;2023-03-24T06:50:42;99050;;;
74485;BMP280;62942;52.462;10.846;2023-03-24T06:51:43;99050;;;
74485;BMP280;62942;52.462;10.846;2023-03-24T06:52:52;99050;;;
74485;BMP280;62942;52.462;10.846;2023-03-24T06:53:52;99060;;;
74485;BMP280;62942;52.462;10.846;2023-03-24T06:54:53;99060;;;
74485;BMP280;62942;52.462;10.846;2023-03-24T06:56:03;99060;;;
74485;BMP280;62942;52.462;10.846;2023-03-24T06:57:12;99040;;;
74485;BMP280;62942;52.462;10.846;2023-03-24T06:58:22;99060;;;
74485;BMP280;62942;52.462;10.846;2023-03-24T06:59:32;99050;;;
74485;BMP280;62942;52.462;10.846;2023-03-24T07:00:33;99050;;;
74485;BMP280;62942;52.462;10.846;2023-03-24T07:01:43;99040;;;
74485;BMP280;62942;52.462;10.846;2023-03-24T07:02:52;99050;;;
74485;BMP280;62942;52.462;10.846;2023-03-24T07:04:03;99050;;;
74485;BMP280;62942;52.462;10.846;2023-03-24T07:05:03;99040;;;
74485;BMP280;62942;52.462;10.846;2023-03-24T07:06:12;99050;;;
74485;BMP280;62942;52.462;10.846;2023-03-24T07:07:22;99050;;;
74485;BMP280;62942;52.462;10.846;2023-03-24T07:08:22;99040;;;